Greenwood, Virginia
Current Conditions -  °F | °C
As of 12:55 AM on Wednesday 22 Oct 2014 (Local Time) from KW13 Reporting Station
Overcast Overcast  
Wind Chill: 50°   Ceiling: 3100
Heat Index: 50°   Visibility: 10mi
Dew Point: 42°   Wind: 6mph
Humidity: 73%   Direction: 320°NW
Pressure: 29.94"   Gusts: NA
Location:  38.05°N, 78.77°W
Report Text: KW13 220455Z AUTO 32005KT 10SM OVC031 10/05 A2994 RMK AO1 T01000053 401850066
Loading
Personal Weather Stations






























Interactive Weather Map New forecast layout! Learn more

10-Day Weather Forecast

Advertisements
Track Severe Weather on mobile